AirNav   Airventure
 
 414 users online  

WS06 Springstead Airport
Park Falls, Wisconsin, USA


FAA INFORMATION EFFECTIVE 20 JULY 2017

Location

FAA Identifier: WS06
Lat/Long: 45-59-15.8140N / 090-09-48.5820W
45-59.263567N / 090-09.809700W
45.9877261 / -90.1634950
(estimated)
Elevation: 1600 ft. / 488 m (estimated)
Variation: 00E (1985)
From city: 14 miles NE of PARK FALLS, WI
Time zone: UTC -5 (UTC -6 during Standard Time)
Zip code: 54552

Airport Operations

Airport use: Private use. Permission required prior to landing
Activation date: 10/1982
Control tower: no
ARTCC: MINNEAPOLIS CENTER
FSS: GREEN BAY FLIGHT SERVICE STATION
Attendance: UNATNDD
Segmented circle: no

Airport Communications

WX AWOS-3PT at D25 (14 nm NE): 118.375 (715-543-2004)
WX AWOS-3 at ARV (18 nm E): 121.125 (715-356-2417)
WX AWOS-3 at PBH (19 nm SW): 125.875 (715-339-4520)

Nearby radio navigation aids

VOR radial/distance  VOR name  Freq  Var
IWDr182/32.7IRONWOOD VORTAC108.8001E
RHIr304/36.4RHINELANDER VOR/DME109.2002E

 
NDB name  Hdg/Dist  Freq  Var  ID
PARK FALLS080/11.237101WPKF .--. -.- ..-.
ARBOR VITAE283/18.522102WARV .- .-. ...-
BOULDER JUNCTION245/22.920602EBDJ -... -.. .---

Airport Services

Runway Information

Runway 1/19

Dimensions: 2000 x 60 ft. / 610 x 18 m
Surface: turf
RUNWAY 1  RUNWAY 19
Traffic pattern: leftleft

Airport Ownership and Management from official FAA records

Ownership: Privately-owned
Owner: LUGINO D. DALESSANDRO
4671W MARTY LAKE RD
PARK FALLS, WI 54552
Phone 715-583-4533
Manager: LUGINO D. DALESSANDRO
4671W MARTY LAKE RD
PARK FALLS, WI 54552
Phone 715-583-4533

Airport Operational Statistics

Aircraft based on the field: 3
Single engine airplanes: 1
Multi engine airplanes: 1
Helicopters: 1
    

Instrument Procedures

There are no published instrument procedures at WS06.

Some nearby airports with instrument procedures:

KPKF - Park Falls Municipal Airport (11 nm W)
D25 - Manitowish Waters Airport (14 nm NE)
KARV - Lakeland Airport/Noble F. Lee Memorial Field (18 nm E)
KPBH - Price County Airport (19 nm SW)
KIWD - Gogebic-Iron County Airport (32 nm N)
 
Loc | Ops | Rwys | IFR | FBO | Links
Com | Nav | Svcs | Stats | Notes


 
Area around WS06 (Springstead Airport)
 
Road maps at: MapQuest Bing Google
 
Aerial photo
No photo
 
Sectional chart

 
Airport distance calculator
Flying to Springstead Airport? Find the distance to fly.

From to WS06

Sunrise and sunset
Times for 26-Jul-2017
 Local
(UTC-5)
 Zulu
(UTC)
Morning civil twilight05:0210:02
Sunrise05:3710:37
Sunset20:3701:37
Evening civil twilight21:1302:13

Current date and time
Zulu (UTC)  26-Jul-2017 05:55:10
Local (UTC-5)  26-Jul-2017 00:55:10
 
METAR
KD25 
14nm NE 
260535Z AUTO 22004KT 10SM OVC022 20/20 A3002 RMK AO2 T02000196
KARV 
19nm E 
260535Z AUTO 22008KT 10SM BKN025 22/19 A3002 RMK AO2 T02160191
KPBH 
20nm SW 
260535Z AUTO 19009KT 10SM OVC024 21/19 A3001 RMK AO2 T02080191
TAF
KIWD 
32nm N 
251136Z 2512/2612 18006KT P6SM FEW200 FM251500 19011G19KT P6SM VCSH BKN120 FM252000 18014G25KT P6SM BKN040 FM260300 19012KT P6SM VCSH BKN035 WS010/25035KT FM260600 21011KT 4SM -SHRA VCTS OVC030CB WS010/25035KT FM260800 22009KT P6SM OVC025
KRHI 
36nm SE 
251956Z 2520/2618 18010G16KT P6SM VCTS FEW025 BKN100CB TEMPO 2520/2524 5SM BR BKN025 FM260000 19008KT P6SM BKN120 FM260800 21006KT P6SM OVC030 PROB30 2608/2610 4SM TSRA OVC007CB FM261000 22006KT P6SM OVC015 PROB30 2610/2612 4SM TSRA OVC007CB FM261400 24006KT P6SM OVC008 FM261700 25006KT P6SM OVC010
NOTAMs
Click for the latest NOTAMs
NOTAMs are issued by the DoD/FAA and will open in a separate window not controlled by AirNav.

 

 
 

Would you like to see your business listed on this page?

 If your business provides an interesting product or service to pilots, flight crews, aircraft, or users of the Springstead Airport, you should consider listing it here.  To start the listing process, click on the button below
 
Add a business
 

Other Pages about Springstead Airport

Update a link
 
Copyright © AirNav, LLC. All rights reserved. Privacy Policy  Contact